Map

Track Data

SID SEASON NUMBER BASIN SUBBASIN NAME ISO_TIME NATURE LAT LON WMO_WIND WMO_PRES WMO_AGENCY TRACK_TYPE DIST2LAND LANDFALL IFLAG USA_AGENCY USA_ATCF_ID USA_LAT USA_LON USA_RECORD USA_STATUS USA_WIND USA_PRES USA_SSHS USA_R34_NE USA_R34_SE USA_R34_SW USA_R34_NW USA_R50_NE USA_R50_SE USA_R50_SW USA_R50_NW USA_R64_NE USA_R64_SE USA_R64_SW USA_R64_NW USA_POCI USA_ROCI USA_RMW USA_EYE TOKYO_LAT TOKYO_LON TOKYO_GRADE TOKYO_WIND TOKYO_PRES TOKYO_R50_DIR TOKYO_R50_LONG TOKYO_R50_SHORT TOKYO_R30_DIR TOKYO_R30_LONG TOKYO_R30_SHORT TOKYO_LAND CMA_LAT CMA_LON CMA_CAT CMA_WIND CMA_PRES HKO_LAT HKO_LON HKO_CAT HKO_WIND HKO_PRES NEWDELHI_LAT NEWDELHI_LON NEWDELHI_GRADE NEWDELHI_WIND NEWDELHI_PRES NEWDELHI_CI NEWDELHI_DP NEWDELHI_POCI REUNION_LAT REUNION_LON REUNION_TYPE REUNION_WIND REUNION_PRES REUNION_TNUM REUNION_CI REUNION_RMW REUNION_R34_NE REUNION_R34_SE REUNION_R34_SW REUNION_R34_NW REUNION_R50_NE REUNION_R50_SE REUNION_R50_SW REUNION_R50_NW REUNION_R64_NE REUNION_R64_SE REUNION_R64_SW REUNION_R64_NW BOM_LAT BOM_LON BOM_TYPE BOM_WIND BOM_PRES BOM_TNUM BOM_CI BOM_RMW BOM_R34_NE BOM_R34_SE BOM_R34_SW BOM_R34_NW BOM_R50_NE BOM_R50_SE BOM_R50_SW BOM_R50_NW BOM_R64_NE BOM_R64_SE BOM_R64_SW BOM_R64_NW BOM_ROCI BOM_POCI BOM_EYE BOM_POS_METHOD BOM_PRES_METHOD NADI_LAT NADI_LON NADI_CAT NADI_WIND NADI_PRES WELLINGTON_LAT WELLINGTON_LON WELLINGTON_WIND WELLINGTON_PRES DS824_LAT DS824_LON DS824_STAGE DS824_WIND DS824_PRES TD9636_LAT TD9636_LON TD9636_STAGE TD9636_WIND TD9636_PRES TD9635_LAT TD9635_LON TD9635_WIND TD9635_PRES TD9635_ROCI NEUMANN_LAT NEUMANN_LON NEUMANN_CLASS NEUMANN_WIND NEUMANN_PRES MLC_LAT MLC_LON MLC_CLASS MLC_WIND MLC_PRES USA_GUST BOM_GUST BOM_GUST_PER REUNION_GUST REUNION_GUST_PER USA_SEAHGT USA_SEARAD_NE USA_SEARAD_SE USA_SEARAD_SW USA_SEARAD_NW STORM_SPEED STORM_DIR
1878261N18090 1878 22 NI BB NOT_NAMED 1878-09-18 00:00:00 TS 17.9000 90.0000 main 390 382 _________O____ -1 17.9000 90.0000 TC 30 1 0
1878261N18090 1878 22 NI BB NOT_NAMED 1878-09-18 03:00:00 TS 17.9733 90.0067 main 382 382 _________PO___ -1 18.0100 90.0100 TC 30 17.9000 90.0000 1 2 351
1878261N18090 1878 22 NI BB NOT_NAMED 1878-09-18 06:00:00 TS 18.0513 89.9906 main 375 375 _________OP___ -1 18.1000 90.0000 TC 30 17.9781 89.9766 1 1 336
1878261N18090 1878 22 NI BB NOT_NAMED 1878-09-18 09:00:00 TS 18.1136 89.9554 main 375 375 _________PP___ -1 18.1575 89.9575 TC 30 18.0550 89.9525 1 1 330
1878261N18090 1878 22 NI BB NOT_NAMED 1878-09-18 12:00:00 TS 18.1647 89.9136 main 376 376 _________OP___ -1 18.2000 89.9000 TC 30 18.1294 89.9272 1 1 324
1878261N18090 1878 22 NI BB NOT_NAMED 1878-09-18 15:00:00 TS 18.2250 89.8713 main 376 369 _________PO___ -1 18.2500 89.8425 TC 30 18.2000 89.9000 1 1 326
1878261N18090 1878 22 NI BB NOT_NAMED 1878-09-18 18:00:00 TS 18.2827 89.8355 main 376 376 _________OP___ -1 18.3000 89.8000 TC 30 18.2653 89.8709 1 1 337
1878261N18090 1878 22 NI BB NOT_NAMED 1878-09-18 21:00:00 TS 18.3400 89.8175 main 376 365 _________PP___ -1 18.3575 89.7925 TC 30 18.3225 89.8425 1 1 346
1878261N18090 1878 22 NI BB NOT_NAMED 1878-09-19 00:00:00 TS 18.3842 89.8089 main 365 365 _________OP___ -1 18.4000 89.8000 TC 30 18.3684 89.8178 1 1 338
1878261N18090 1878 22 NI BB NOT_NAMED 1878-09-19 03:00:00 TS 18.4037 89.8000 main 365 365 _________PO___ -1 18.4075 89.8000 TC 30 18.4000 89.8000 1 0 0
1878261N18090 1878 22 NI BB NOT_NAMED 1878-09-19 06:00:00 TS 18.4072 89.7964 main 365 365 _________OP___ -1 18.4000 89.8000 TC 30 18.4144 89.7928 1 0 0
1878261N18090 1878 22 NI BB NOT_NAMED 1878-09-19 09:00:00 TS 18.4075 89.7962 main 365 365 _________PP___ -1 18.4000 89.8000 TC 30 18.4150 89.7925 1 0 0
1878261N18090 1878 22 NI BB NOT_NAMED 1878-09-19 12:00:00 TS 18.4041 89.7980 main 365 365 _________OP___ -1 18.4000 89.8000 TC 30 18.4081 89.7959 1 0 0
1878261N18090 1878 22 NI BB NOT_NAMED 1878-09-19 15:00:00 TS 18.4000 89.8000 main 365 365 _________PO___ -1 18.4000 89.8000 TC 30 18.4000 89.8000 1 0 140
1878261N18090 1878 22 NI BB NOT_NAMED 1878-09-19 18:00:00 TS 18.3736 89.8121 main 365 365 _________OP___ -1 18.4000 89.8000 TC 30 18.3472 89.8242 1 1 149
1878261N18090 1878 22 NI BB NOT_NAMED 1878-09-19 21:00:00 TS 18.3325 89.8298 main 376 376 _________PP___ -1 18.3625 89.8150 TC 30 18.3024 89.8446 1 0 0
1878261N18090 1878 22 NI BB NOT_NAMED 1878-09-20 00:00:00 TS 18.3532 89.8214 main 365 354 _________OP___ -1 18.4000 89.8000 TC 30 18.3065 89.8428 1 2 340
1878261N18090 1878 22 NI BB NOT_NAMED 1878-09-20 03:00:00 TS 18.4950 89.7650 main 354 330 _________PO___ -1 18.5900 89.7299 TC 30 18.4000 89.8000 1 4 337
1878261N18090 1878 22 NI BB NOT_NAMED 1878-09-20 06:00:00 TS 18.7618 89.6447 main 317 282 _________OP___ -1 18.9000 89.6000 TC 30 18.6235 89.6894 1 7 336
1878261N18090 1878 22 NI BB NOT_NAMED 1878-09-20 09:00:00 TS 19.1114 89.4728 main 282 235 _________PP___ -1 19.2850 89.4076 TC 30 18.9377 89.5379 1 8 335
1878261N18090 1878 22 NI BB NOT_NAMED 1878-09-20 12:00:00 TS 19.5040 89.2837 main 235 190 _________OP___ -1 19.7000 89.2000 TC 30 19.3079 89.3675 1 8 336
1878261N18090 1878 22 NI BB NOT_NAMED 1878-09-20 15:00:00 TS 19.8750 89.1174 main 190 156 _________PO___ -1 20.0500 89.0349 TC 30 19.7000 89.2000 1 8 339
1878261N18090 1878 22 NI BB NOT_NAMED 1878-09-20 18:00:00 TS 20.2466 88.9759 main 156 111 _________OP___ -1 20.4000 88.9000 TC 30 20.0931 89.0518 1 8 342
1878261N18090 1878 22 NI BB NOT_NAMED 1878-09-20 21:00:00 TS 20.6625 88.8489 main 101 67 _________PP___ -1 20.8300 88.7850 TC 30 20.4950 88.9128 1 8 345
1878261N18090 1878 22 NI BB NOT_NAMED 1878-09-21 00:00:00 TS 21.0372 88.7462 main 70 39 _________OP___ -1 21.2000 88.7000 TC 30 20.8744 88.7924 1 7 345
1878261N18090 1878 22 NI BB NOT_NAMED 1878-09-21 03:00:00 TS 21.2900 88.6675 main 39 15 _________PO___ -1 21.3800 88.6349 TC 30 21.2000 88.7000 1 4 346
1878261N18090 1878 22 NI BB NOT_NAMED 1878-09-21 06:00:00 TS 21.4642 88.6229 main 15 10 _________OP___ -1 21.5000 88.6000 TC 30 21.4284 88.6459 1 4 350
1878261N18090 1878 22 NI BB NOT_NAMED 1878-09-21 09:00:00 TS 21.6474 88.6097 main 10 0 _________PP___ -1 21.6925 88.5999 TC 30 21.6024 88.6195 1 4 0
1878261N18090 1878 22 NI BB NOT_NAMED 1878-09-21 12:00:00 TS 21.8251 88.6042 main 0 0 _________OP___ -1 21.9000 88.6000 TC 30 21.7503 88.6085 1 4 355
1878261N18090 1878 22 NI BB NOT_NAMED 1878-09-21 15:00:00 TS 22.0000 88.5750 main 0 0 _________PO___ -1 22.1000 88.5500 TC 30 21.9000 88.6000 1 4 352
1878261N18090 1878 22 NI BB NOT_NAMED 1878-09-21 18:00:00 TS 22.1883 88.5375 main 0 0 _________OP___ -1 22.3000 88.5000 TC 30 22.0766 88.5750 1 4 355
1878261N18090 1878 22 NI BB NOT_NAMED 1878-09-21 21:00:00 TS 22.3738 88.5249 main 0 0 _________PP___ -1 22.4850 88.4999 TC 30 22.2625 88.5499 1 4 358
1878261N18090 1878 22 NI BB NOT_NAMED 1878-09-22 00:00:00 TS 22.5836 88.5125 main 0 0 _________OP___ -1 22.7000 88.5000 TC 30 22.4672 88.5250 1 5 356
1878261N18090 1878 22 NI BB NOT_NAMED 1878-09-22 03:00:00 TS 22.8425 88.4750 main 0 0 _________PO___ -1 22.9850 88.4501 TC 30 22.7000 88.5000 1 6 353
1878261N18090 1878 22 NI BB NOT_NAMED 1878-09-22 06:00:00 TS 23.1336 88.4375 main 0 0 _________OP___ -1 23.3000 88.4000 TC 30 22.9672 88.4750 1 6 357
1878261N18090 1878 22 NI BB NOT_NAMED 1878-09-22 09:00:00 TS 23.4313 88.4249 main 0 0 _________PP___ -1 23.6000 88.3999 TC 30 23.2625 88.4500 1 6 358
1878261N18090 1878 22 NI BB NOT_NAMED 1878-09-22 12:00:00 TS 23.7383 88.4125 main 0 0 _________OP___ -1 23.9000 88.4000 TC 30 23.5766 88.4250 1 6 356
1878261N18090 1878 22 NI BB NOT_NAMED 1878-09-22 15:00:00 TS 24.0463 88.3750 main 0 0 _________PO___ -1 24.1925 88.3501 TC 30 23.9000 88.4000 1 6 354
1878261N18090 1878 22 NI BB NOT_NAMED 1878-09-22 18:00:00 TS 24.3429 88.3429 main 0 0 _________OP___ -1 24.5000 88.3000 TC 30 24.2250 88.3751 1 6 357
1878261N18090 1878 22 NI BB NOT_NAMED 1878-09-22 21:00:00 TS 24.6660 88.3250 main 0 0 _________PP___ -1 24.8400 88.2874 TC 30 24.5500 88.3501 1 6 0
1878261N18090 1878 22 NI BB NOT_NAMED 1878-09-23 00:00:00 TS 24.9833 88.3167 main 0 0 _________OP___ -1 25.2000 88.3000 TC 30 24.8750 88.3251 1 5 0
1878261N18090 1878 22 NI BB NOT_NAMED 1878-09-23 03:00:00 NR 25.2000 88.3000 main 0 __________O___ -1 TC 25.2000 88.3000 1 4 359

About IBTrACS Database

This database is a web-friendly format of International Best Track Archive for Climate Stewardship (IBTrACS), a global best track data archive curated by NOAA dating back to 1842.

Updated: 2021-10-25